Time;durP1;ratioP1;P1;durP2;ratioP2;P2;SDS_P1;SDS_P2;PMS_P1;PMS_P2;Temp;Humidity;BMP_temperature;BMP_pressure;BME280_temperature;BME280_humidity;BME280_pressure;Samples;Min_cycle;Max_cycle;Signal;HPM_P1;HPM_P2
2022/11/12 00:00:44;;;;;;;53.33;30.05;;;;;;;;;;5134263;28;20039;-77
2022/11/12 00:03:48;;;;;;;92.20;46.33;;;;;;;;;;5134388;28;20040;-77
2022/11/12 00:06:51;;;;;;;55.78;30.50;;;;;;;;;;5133909;28;20291;-77
2022/11/12 00:09:55;;;;;;;97.22;50.35;;;;;;;;;;5134416;28;20043;-77
2022/11/12 00:12:58;;;;;;;53.70;30.30;;;;;;;;;;5134152;28;20040;-77
2022/11/12 00:16:04;;;;;;;48.58;28.85;;;;;;;;;;5134370;28;20039;-77
2022/11/12 00:19:08;;;;;;;51.35;28.33;;;;;;;;;;5134287;28;20035;-77
2022/11/12 00:22:11;;;;;;;63.55;34.95;;;;;;;;;;5134557;28;20035;-78
2022/11/12 00:25:15;;;;;;;56.05;31.08;;;;;;;;;;5134322;28;20039;-77
2022/11/12 00:28:19;;;;;;;51.25;30.00;;;;;;;;;;5134263;28;20043;-77
2022/11/12 00:31:26;;;;;;;57.50;30.88;;;;;;;;;;5134324;28;20044;-76
2022/11/12 00:34:31;;;;;;;60.42;31.48;;;;;;;;;;5134546;28;20035;-77
2022/11/12 00:37:35;;;;;;;66.90;34.53;;;;;;;;;;5135726;27;20047;-77
2022/11/12 00:40:41;;;;;;;57.88;33.10;;;;;;;;;;5138270;27;20036;-77
2022/11/12 00:43:45;;;;;;;62.95;32.10;;;;;;;;;;5138115;27;20039;-76
2022/11/12 00:46:49;;;;;;;60.72;31.95;;;;;;;;;;5137975;27;20478;-77
2022/11/12 00:49:53;;;;;;;68.30;34.15;;;;;;;;;;5138300;27;20483;-77
2022/11/12 00:52:58;;;;;;;69.55;34.80;;;;;;;;;;5138213;27;20043;-77
2022/11/12 00:56:04;;;;;;;54.40;29.98;;;;;;;;;;5137860;27;20047;-76
2022/11/12 00:59:08;;;;;;;59.58;32.30;;;;;;;;;;5138002;27;20388;-77
2022/11/12 01:02:11;;;;;;;58.95;31.27;;;;;;;;;;5138022;27;20031;-77
2022/11/12 01:05:15;;;;;;;58.30;31.85;;;;;;;;;;5137522;27;20043;-78
2022/11/12 01:08:19;;;;;;;59.93;33.07;;;;;;;;;;5137574;27;20471;-77
2022/11/12 01:11:29;;;;;;;55.22;32.25;;;;;;;;;;5138057;27;20392;-76
2022/11/12 01:14:36;;;;;;;54.92;30.30;;;;;;;;;;5137254;27;20399;-76
2022/11/12 01:17:40;;;;;;;61.53;32.95;;;;;;;;;;5137515;27;20035;-76
2022/11/12 01:20:43;;;;;;;56.05;32.00;;;;;;;;;;5137408;27;20035;-76
2022/11/12 01:23:47;;;;;;;141.50;81.53;;;;;;;;;;5137410;27;20035;-76
2022/11/12 01:26:51;;;;;;;86.75;49.70;;;;;;;;;;5137552;27;20051;-76
2022/11/12 01:29:55;;;;;;;76.20;41.63;;;;;;;;;;5137024;27;20043;-76
2022/11/12 01:32:59;;;;;;;154.60;71.72;;;;;;;;;;5137110;27;20043;-76
2022/11/12 01:36:02;;;;;;;74.97;40.92;;;;;;;;;;5136814;27;20035;-76
2022/11/12 01:39:08;;;;;;;62.22;31.50;;;;;;;;;;5137506;27;20051;-76
2022/11/12 01:42:11;;;;;;;61.67;32.55;;;;;;;;;;5136808;27;20043;-76
2022/11/12 01:45:16;;;;;;;74.13;38.65;;;;;;;;;;5137305;27;20043;-76
2022/11/12 01:48:24;;;;;;;80.15;43.22;;;;;;;;;;5136336;27;20043;-76
2022/11/12 01:51:37;;;;;;;80.95;43.28;;;;;;;;;;5136745;27;20035;-76
2022/11/12 01:54:45;;;;;;;70.47;38.30;;;;;;;;;;5137288;27;20391;-76
2022/11/12 01:58:12;;;;;;;54.42;32.70;;;;;;;;;;5136985;27;20043;-76
2022/11/12 02:01:16;;;;;;;59.47;32.53;;;;;;;;;;5136289;27;20403;-76
2022/11/12 02:04:21;;;;;;;65.35;36.05;;;;;;;;;;5136110;27;20043;-76
2022/11/12 02:07:25;;;;;;;53.60;33.40;;;;;;;;;;5136271;27;20055;-76
2022/11/12 02:10:29;;;;;;;69.53;36.73;;;;;;;;;;5136355;27;20036;-76
2022/11/12 02:16:55;;;;;;;81.35;38.30;;;;;;;;;;5136057;27;20051;-76
2022/11/12 02:19:59;;;;;;;65.47;36.92;;;;;;;;;;5135937;27;20407;-76
2022/11/12 02:23:05;;;;;;;72.65;36.00;;;;;;;;;;5136397;27;20035;-76
2022/11/12 02:26:09;;;;;;;62.17;32.08;;;;;;;;;;5136360;27;20035;-76
2022/11/12 02:29:12;;;;;;;59.65;31.35;;;;;;;;;;5135742;27;20035;-77
2022/11/12 02:32:16;;;;;;;53.60;28.77;;;;;;;;;;5135737;27;20396;-77
2022/11/12 02:35:19;;;;;;;49.13;29.27;;;;;;;;;;5135948;27;20039;-76
2022/11/12 02:38:23;;;;;;;49.25;28.08;;;;;;;;;;5135823;27;20395;-76
2022/11/12 02:41:26;;;;;;;58.40;28.92;;;;;;;;;;5135844;27;20043;-76
2022/11/12 02:44:30;;;;;;;47.15;26.20;;;;;;;;;;5135677;27;20400;-77
2022/11/12 02:47:34;;;;;;;48.88;27.88;;;;;;;;;;5135908;27;20035;-77
2022/11/12 02:50:39;;;;;;;51.13;27.03;;;;;;;;;;5135903;27;20051;-76
2022/11/12 02:53:43;;;;;;;49.00;27.63;;;;;;;;;;5135844;27;20268;-76
2022/11/12 02:56:47;;;;;;;51.92;28.20;;;;;;;;;;5135473;27;20480;-76
2022/11/12 02:59:51;;;;;;;60.65;34.03;;;;;;;;;;5134420;27;20051;-77
2022/11/12 03:02:58;;;;;;;58.17;31.97;;;;;;;;;;5135566;27;20047;-76
2022/11/12 03:06:02;;;;;;;56.40;32.17;;;;;;;;;;5134834;27;20279;-77
2022/11/12 03:09:06;;;;;;;53.67;32.57;;;;;;;;;;5135542;27;20043;-76
2022/11/12 03:12:10;;;;;;;51.28;28.92;;;;;;;;;;5122511;27;20759;-76
2022/11/12 03:15:16;;;;;;;55.00;28.65;;;;;;;;;;5135470;27;20047;-76
2022/11/12 03:18:21;;;;;;;50.65;28.42;;;;;;;;;;5134835;27;20484;-76
2022/11/12 03:21:24;;;;;;;54.47;27.77;;;;;;;;;;5135057;27;20031;-76
2022/11/12 03:24:29;;;;;;;53.70;30.27;;;;;;;;;;5135808;27;20031;-77
2022/11/12 03:27:32;;;;;;;47.35;28.35;;;;;;;;;;5134823;27;20043;-77
2022/11/12 03:30:40;;;;;;;57.08;29.38;;;;;;;;;;5135559;27;20035;-76
2022/11/12 03:33:44;;;;;;;48.78;29.38;;;;;;;;;;5134444;27;20404;-76
2022/11/12 03:36:48;;;;;;;51.55;29.10;;;;;;;;;;5135156;27;20035;-77
2022/11/12 03:39:51;;;;;;;49.25;29.35;;;;;;;;;;5134919;27;20039;-76
2022/11/12 03:42:56;;;;;;;52.10;29.98;;;;;;;;;;5135079;27;20039;-76
2022/11/12 03:46:00;;;;;;;54.38;30.00;;;;;;;;;;5135350;27;20036;-76
2022/11/12 03:49:04;;;;;;;53.05;29.13;;;;;;;;;;5139246;27;20039;-76
2022/11/12 03:52:09;;;;;;;51.72;28.38;;;;;;;;;;5135717;27;20040;-76
2022/11/12 03:55:15;;;;;;;43.70;26.42;;;;;;;;;;5134444;27;20043;-77
2022/11/12 03:58:19;;;;;;;48.55;27.38;;;;;;;;;;5135030;27;20047;-76
2022/11/12 04:01:22;;;;;;;48.92;26.75;;;;;;;;;;5134674;28;20047;-77
2022/11/12 04:08:34;;;;;;;44.28;27.13;;;;;;;;;;5134418;28;20039;-76
2022/11/12 04:11:24;;;;;;;50.92;26.67;;;;;;;;;;5135961;27;20043;-76
2022/11/12 04:14:28;;;;;;;51.05;26.50;;;;;;;;;;5138835;27;20040;-76
2022/11/12 04:27:51;;;;;;;48.13;26.67;;;;;;;;;;5138699;27;20035;-76
2022/11/12 04:30:55;;;;;;;48.60;28.35;;;;;;;;;;5138455;27;20039;-77
2022/11/12 04:34:27;;;;;;;43.65;27.25;;;;;;;;;;5138083;27;20399;-76
2022/11/12 04:37:24;;;;;;;57.45;28.65;;;;;;;;;;5138186;27;20039;-76
2022/11/12 04:47:14;;;;;;;49.70;26.58;;;;;;;;;;5138012;27;20043;-77
2022/11/12 04:50:19;;;;;;;48.03;26.60;;;;;;;;;;5137948;27;20035;-76
2022/11/12 04:53:24;;;;;;;46.30;27.50;;;;;;;;;;5138103;27;20035;-76
2022/11/12 04:56:28;;;;;;;49.80;26.55;;;;;;;;;;5137999;27;20035;-76
2022/11/12 04:59:31;;;;;;;42.72;26.13;;;;;;;;;;5138112;27;20047;-76
2022/11/12 05:02:36;;;;;;;46.03;26.30;;;;;;;;;;5137683;27;20043;-76
2022/11/12 05:05:40;;;;;;;46.00;25.73;;;;;;;;;;5137582;27;20496;-76
2022/11/12 05:08:44;;;;;;;48.08;26.63;;;;;;;;;;5137292;27;20032;-76
2022/11/12 05:11:48;;;;;;;42.72;25.25;;;;;;;;;;5137737;27;20031;-76
2022/11/12 05:14:52;;;;;;;47.33;27.20;;;;;;;;;;5137655;27;20043;-77
2022/11/12 05:17:56;;;;;;;52.83;29.85;;;;;;;;;;5137518;27;20271;-77
2022/11/12 05:22:04;;;;;;;51.65;29.42;;;;;;;;;;5137452;27;20047;-76
2022/11/12 05:24:24;;;;;;;51.50;30.75;;;;;;;;;;5136261;27;20039;-75
2022/11/12 05:27:28;;;;;;;57.00;30.30;;;;;;;;;;5137399;27;20047;-76
2022/11/12 05:30:32;;;;;;;48.03;28.73;;;;;;;;;;5136915;27;20621;-77
2022/11/12 05:33:35;;;;;;;55.53;29.08;;;;;;;;;;5136670;27;20039;-77
2022/11/12 05:36:39;;;;;;;47.42;28.98;;;;;;;;;;5137027;27;20035;-77
2022/11/12 05:39:42;;;;;;;46.85;28.80;;;;;;;;;;5137096;27;20047;-77
2022/11/12 05:42:46;;;;;;;49.90;27.70;;;;;;;;;;5136761;27;20042;-76
2022/11/12 05:45:49;;;;;;;45.78;28.00;;;;;;;;;;5137287;27;20035;-77
2022/11/12 05:48:53;;;;;;;49.22;28.23;;;;;;;;;;5136600;27;20040;-77
2022/11/12 05:51:56;;;;;;;48.80;26.77;;;;;;;;;;5137029;27;20035;-76
2022/11/12 05:55:00;;;;;;;49.08;27.10;;;;;;;;;;5136506;27;20047;-76
2022/11/12 05:58:05;;;;;;;61.53;31.98;;;;;;;;;;5136904;27;20388;-76
2022/11/12 06:01:09;;;;;;;50.08;26.13;;;;;;;;;;5136842;27;20051;-77
2022/11/12 06:04:14;;;;;;;45.47;24.20;;;;;;;;;;5136730;27;20031;-77
2022/11/12 06:07:18;;;;;;;43.38;25.27;;;;;;;;;;5136019;27;20475;-76
2022/11/12 06:10:22;;;;;;;44.30;25.25;;;;;;;;;;5136212;27;20039;-77
2022/11/12 06:13:26;;;;;;;50.28;27.92;;;;;;;;;;5136311;27;20039;-77
2022/11/12 06:16:31;;;;;;;53.40;28.80;;;;;;;;;;5136191;27;20043;-77
2022/11/12 06:19:35;;;;;;;63.00;30.93;;;;;;;;;;5136524;27;20074;-77
2022/11/12 06:22:39;;;;;;;67.68;32.50;;;;;;;;;;5135880;27;20039;-77
2022/11/12 06:25:44;;;;;;;57.25;30.83;;;;;;;;;;5136142;27;20039;-77
2022/11/12 06:28:48;;;;;;;57.20;32.33;;;;;;;;;;5135924;27;20031;-77
2022/11/12 06:31:52;;;;;;;56.65;31.33;;;;;;;;;;5136063;27;20471;-77
2022/11/12 06:34:55;;;;;;;56.35;31.35;;;;;;;;;;5134666;27;20035;-77
2022/11/12 06:38:00;;;;;;;61.90;30.90;;;;;;;;;;5136119;27;20464;-77
2022/11/12 06:41:04;;;;;;;58.78;30.88;;;;;;;;;;5135889;27;20036;-77
2022/11/12 06:44:09;;;;;;;51.45;29.77;;;;;;;;;;5135497;27;20487;-77
2022/11/12 06:47:13;;;;;;;52.97;29.87;;;;;;;;;;5137025;27;20035;-78
2022/11/12 06:50:18;;;;;;;57.30;30.33;;;;;;;;;;5135177;27;20479;-77
2022/11/12 06:53:22;;;;;;;57.47;30.92;;;;;;;;;;5135664;27;20396;-77
2022/11/12 06:56:26;;;;;;;50.20;28.80;;;;;;;;;;5135416;27;20488;-77
2022/11/12 06:59:29;;;;;;;51.33;27.52;;;;;;;;;;5135269;27;20399;-77
2022/11/12 07:02:33;;;;;;;53.75;28.65;;;;;;;;;;5135351;27;20039;-77
2022/11/12 07:05:37;;;;;;;47.03;28.02;;;;;;;;;;5135029;27;20047;-77
2022/11/12 07:08:41;;;;;;;59.17;31.83;;;;;;;;;;5135167;27;20046;-77
2022/11/12 07:11:45;;;;;;;74.57;42.70;;;;;;;;;;5134840;27;20031;-77
2022/11/12 07:14:49;;;;;;;55.15;33.10;;;;;;;;;;5134854;27;20488;-78
2022/11/12 07:17:53;;;;;;;61.60;36.95;;;;;;;;;;5134658;27;20047;-77
2022/11/12 07:21:01;;;;;;;83.03;45.17;;;;;;;;;;5134622;27;20035;-77
2022/11/12 07:24:05;;;;;;;58.05;34.25;;;;;;;;;;5134942;27;20039;-77
2022/11/12 07:27:09;;;;;;;61.53;37.60;;;;;;;;;;5134586;27;20479;-77
2022/11/12 07:30:13;;;;;;;61.45;38.58;;;;;;;;;;5134678;27;20279;-77
2022/11/12 07:33:17;;;;;;;71.10;44.03;;;;;;;;;;5134936;27;20481;-77
2022/11/12 07:36:21;;;;;;;60.35;36.70;;;;;;;;;;5134920;27;20043;-77
2022/11/12 07:39:24;;;;;;;75.05;44.58;;;;;;;;;;5134830;27;20504;-76
2022/11/12 07:42:31;;;;;;;72.95;41.30;;;;;;;;;;5134708;27;20039;-77
2022/11/12 07:45:36;;;;;;;62.30;37.67;;;;;;;;;;5134005;27;20043;-77
2022/11/12 07:48:39;;;;;;;49.90;30.73;;;;;;;;;;5134533;27;20043;-77
2022/11/12 07:51:44;;;;;;;64.60;33.17;;;;;;;;;;5134304;27;20035;-76
2022/11/12 07:54:48;;;;;;;71.83;41.73;;;;;;;;;;5126017;27;20035;-76
2022/11/12 07:57:53;;;;;;;78.32;40.35;;;;;;;;;;5113613;28;20036;-78
2022/11/12 08:01:05;;;;;;;71.50;36.97;;;;;;;;;;5113179;28;20036;-77
2022/11/12 08:04:11;;;;;;;80.40;40.47;;;;;;;;;;5113332;28;20047;-76
2022/11/12 08:07:14;;;;;;;80.35;43.40;;;;;;;;;;5113667;28;20047;-77
2022/11/12 08:10:19;;;;;;;92.05;46.15;;;;;;;;;;5112942;28;20046;-77
2022/11/12 08:13:24;;;;;;;90.67;44.53;;;;;;;;;;5113833;28;20047;-77
2022/11/12 08:16:28;;;;;;;81.23;43.20;;;;;;;;;;5114015;28;20031;-76
2022/11/12 08:19:32;;;;;;;78.10;43.53;;;;;;;;;;5113827;28;20265;-75
2022/11/12 08:22:37;;;;;;;90.72;45.38;;;;;;;;;;5113590;28;20039;-77
2022/11/12 08:25:42;;;;;;;87.18;44.70;;;;;;;;;;5113293;28;20044;-76
2022/11/12 08:28:46;;;;;;;85.60;45.57;;;;;;;;;;5113517;28;20051;-81
2022/11/12 08:31:51;;;;;;;90.40;45.83;;;;;;;;;;5113736;28;20415;-81
2022/11/12 08:34:54;;;;;;;82.25;42.95;;;;;;;;;;5119451;28;20043;-79
2022/11/12 08:37:59;;;;;;;74.40;36.45;;;;;;;;;;5114900;28;20047;-80
2022/11/12 08:41:09;;;;;;;60.03;37.00;;;;;;;;;;5114887;28;20040;-82
2022/11/12 08:44:13;;;;;;;61.40;35.40;;;;;;;;;;5113658;28;20032;-82
2022/11/12 08:47:16;;;;;;;68.20;35.75;;;;;;;;;;5112919;28;20044;-82
2022/11/12 08:50:20;;;;;;;80.00;39.85;;;;;;;;;;5113068;28;20036;-82
2022/11/12 08:53:24;;;;;;;48.28;26.30;;;;;;;;;;5113001;28;20031;-82
2022/11/12 08:56:28;;;;;;;37.97;23.20;;;;;;;;;;5113834;28;20035;-82
2022/11/12 08:59:31;;;;;;;35.85;21.30;;;;;;;;;;5116471;28;20044;-82
2022/11/12 09:02:35;;;;;;;37.30;19.60;;;;;;;;;;5122751;28;20043;-81
2022/11/12 09:05:40;;;;;;;31.33;18.08;;;;;;;;;;5117426;28;20048;-82
2022/11/12 09:08:44;;;;;;;35.03;21.07;;;;;;;;;;5117372;28;20044;-82
2022/11/12 09:11:49;;;;;;;38.90;21.52;;;;;;;;;;5117189;28;20047;-82
2022/11/12 09:14:52;;;;;;;36.92;18.67;;;;;;;;;;5116626;28;20039;-82
2022/11/12 09:17:58;;;;;;;34.97;19.50;;;;;;;;;;5114501;28;20436;-82
2022/11/12 09:21:03;;;;;;;45.30;24.13;;;;;;;;;;5115245;28;20035;-76
2022/11/12 09:24:07;;;;;;;38.45;23.13;;;;;;;;;;5116962;28;20396;-76
2022/11/12 09:27:10;;;;;;;43.15;22.67;;;;;;;;;;5116504;28;20039;-76
2022/11/12 09:30:14;;;;;;;40.85;22.15;;;;;;;;;;5116348;28;20036;-77
2022/11/12 09:33:30;;;;;;;35.50;20.27;;;;;;;;;;5117226;28;20040;-77
2022/11/12 09:36:34;;;;;;;40.95;22.98;;;;;;;;;;5120659;28;20048;-77
2022/11/12 09:39:39;;;;;;;37.60;19.40;;;;;;;;;;5116795;28;20392;-79
2022/11/12 09:42:46;;;;;;;38.58;21.50;;;;;;;;;;5116458;28;20040;-78
2022/11/12 09:45:55;;;;;;;39.97;21.33;;;;;;;;;;5117271;28;20047;-86
2022/11/12 09:49:06;;;;;;;30.23;17.85;;;;;;;;;;5114040;28;20492;-82
2022/11/12 09:52:26;;;;;;;38.53;17.42;;;;;;;;;;5117268;28;20124;-86
2022/11/12 09:55:39;;;;;;;28.13;17.15;;;;;;;;;;5103715;28;20408;-84
2022/11/12 09:58:43;;;;;;;32.25;15.13;;;;;;;;;;5115312;28;20485;-83
2022/11/12 10:01:58;;;;;;;30.83;17.53;;;;;;;;;;5116394;28;20040;-82
2022/11/12 10:05:38;;;;;;;32.83;17.55;;;;;;;;;;5116098;28;20059;-85
2022/11/12 10:09:04;;;;;;;32.92;18.08;;;;;;;;;;5094434;28;20044;-86
2022/11/12 10:12:31;;;;;;;;;;;;;;;;;;5116899;28;20408;-84
2022/11/12 10:19:22;;;;;;;32.20;19.17;;;;;;;;;;5123154;28;20056;-85
2022/11/12 10:22:54;;;;;;;32.22;18.85;;;;;;;;;;5116568;28;20047;-85
2022/11/12 10:26:00;;;;;;;30.15;16.58;;;;;;;;;;5116681;28;20039;-85
2022/11/12 10:29:10;;;;;;;29.88;18.30;;;;;;;;;;5115794;28;20039;-85
2022/11/12 10:32:15;;;;;;;27.90;17.30;;;;;;;;;;5115630;28;20044;-85
2022/11/12 10:35:20;;;;;;;;;;;;;;;;;;5114308;28;20396;-85
2022/11/12 10:38:27;;;;;;;31.65;17.92;;;;;;;;;;5103164;28;19911;-85
2022/11/12 10:41:32;;;;;;;31.20;19.50;;;;;;;;;;5103193;28;20036;-85
2022/11/12 10:44:38;;;;;;;28.85;16.65;;;;;;;;;;5102728;28;20040;-85
2022/11/12 10:47:45;;;;;;;28.77;17.30;;;;;;;;;;5102672;28;20040;-85
2022/11/12 10:50:49;;;;;;;25.98;16.33;;;;;;;;;;5115476;28;20048;-85
2022/11/12 10:53:53;;;;;;;24.80;16.27;;;;;;;;;;5102716;28;20043;-85
2022/11/12 10:57:18;;;;;;;27.58;16.27;;;;;;;;;;5102396;28;20043;-85
2022/11/12 11:00:23;;;;;;;31.85;16.55;;;;;;;;;;5102491;28;20052;-84
2022/11/12 11:03:48;;;;;;;25.15;16.13;;;;;;;;;;5100950;28;20059;-84
2022/11/12 11:07:03;;;;;;;;;;;;;;;;;;5104194;28;20047;-84
2022/11/12 11:10:27;;;;;;;26.47;15.63;;;;;;;;;;5101075;28;19915;-85
2022/11/12 11:13:34;;;;;;;22.52;15.52;;;;;;;;;;5116598;28;20276;-85
2022/11/12 11:17:07;;;;;;;18.27;11.70;;;;;;;;;;5124665;28;20036;-85
2022/11/12 11:20:44;;;;;;;22.58;14.73;;;;;;;;;;5112282;28;20043;-84
2022/11/12 11:24:15;;;;;;;25.35;15.23;;;;;;;;;;5108161;28;20039;-84
2022/11/12 11:27:40;;;;;;;20.83;12.73;;;;;;;;;;5128214;28;20035;-85
2022/11/12 11:31:24;;;;;;;21.15;14.23;;;;;;;;;;5113951;28;20044;-85
2022/11/12 11:34:37;;;;;;;21.90;14.20;;;;;;;;;;5107772;28;20047;-85
2022/11/12 11:37:52;;;;;;;21.00;13.13;;;;;;;;;;5115146;28;20044;-84
2022/11/12 11:41:05;;;;;;;;;;;;;;;;;;5113491;28;20043;-85
2022/11/12 11:44:37;;;;;;;20.30;11.88;;;;;;;;;;5112957;28;19912;-84
2022/11/12 11:48:00;;;;;;;19.27;12.40;;;;;;;;;;5114394;28;20369;-85
2022/11/12 11:51:29;;;;;;;16.70;11.65;;;;;;;;;;5114652;28;20044;-85
2022/11/12 11:54:55;;;;;;;18.83;10.25;;;;;;;;;;5114029;28;20043;-84
2022/11/12 11:58:17;;;;;;;;;;;;;;;;;;5114976;28;20039;-85
2022/11/12 12:01:29;;;;;;;18.05;10.10;;;;;;;;;;5113974;28;19911;-85
2022/11/12 12:04:53;;;;;;;16.98;10.02;;;;;;;;;;5114777;28;20044;-85
2022/11/12 12:08:38;;;;;;;16.02;9.50;;;;;;;;;;5101525;28;20043;-85
2022/11/12 12:12:05;;;;;;;14.23;9.52;;;;;;;;;;5018468;28;20046;-87
2022/11/12 12:15:28;;;;;;;16.33;10.25;;;;;;;;;;5101694;28;20039;-86
2022/11/12 12:18:35;;;;;;;13.82;8.73;;;;;;;;;;5114193;28;20048;-85
2022/11/12 12:21:40;;;;;;;14.98;9.93;;;;;;;;;;5113584;28;20044;-86
2022/11/12 12:24:53;;;;;;;19.95;10.75;;;;;;;;;;5114417;28;20465;-86
2022/11/12 12:28:35;;;;;;;14.55;9.70;;;;;;;;;;5114103;28;20039;-87
2022/11/12 12:31:46;;;;;;;27.77;15.57;;;;;;;;;;5114044;28;20044;-86
2022/11/12 12:35:14;;;;;;;27.08;15.07;;;;;;;;;;5106942;28;20040;-81
2022/11/12 12:38:41;;;;;;;18.50;11.52;;;;;;;;;;5117686;28;20472;-81
2022/11/12 12:42:00;;;;;;;20.33;11.32;;;;;;;;;;5117728;28;20051;-81
2022/11/12 12:45:16;;;;;;;17.88;11.80;;;;;;;;;;5117184;28;20047;-81
2022/11/12 12:48:20;;;;;;;;;;;;;;;;;;5105512;28;20040;-79
2022/11/12 12:51:28;;;;;;;18.40;13.25;;;;;;;;;;5118627;28;19915;-80
2022/11/12 12:54:50;;;;;;;20.17;13.52;;;;;;;;;;5117186;28;20036;-81
2022/11/12 12:57:58;;;;;;;20.48;13.18;;;;;;;;;;5123613;28;20404;-82
2022/11/12 13:01:20;;;;;;;24.05;14.40;;;;;;;;;;5118091;28;20047;-82
2022/11/12 13:04:59;;;;;;;22.10;14.48;;;;;;;;;;5118492;28;20043;-80
2022/11/12 13:08:23;;;;;;;15.30;9.38;;;;;;;;;;5038347;28;20045;-81
2022/11/12 13:15:14;;;;;;;14.23;9.70;;;;;;;;;;5123729;28;20047;-80
2022/11/12 13:18:36;;;;;;;;;;;;;;;;;;5117625;28;20044;-80
2022/11/12 13:21:43;;;;;;;15.55;10.95;;;;;;;;;;5117140;28;19911;-81
2022/11/12 13:25:07;;;;;;;22.48;11.13;;;;;;;;;;5104480;28;20043;-77
2022/11/12 13:28:13;;;;;;;21.75;11.68;;;;;;;;;;5116831;28;20488;-79
2022/11/12 13:31:28;;;;;;;23.92;11.85;;;;;;;;;;5116953;28;20035;-79
2022/11/12 13:34:32;;;;;;;14.88;9.20;;;;;;;;;;5116849;28;20039;-79
2022/11/12 13:37:44;;;;;;;15.43;10.87;;;;;;;;;;5116836;28;20043;-80
2022/11/12 13:41:15;;;;;;;30.70;18.13;;;;;;;;;;5118779;28;20052;-80
2022/11/12 13:44:19;;;;;;;31.55;17.83;;;;;;;;;;5115361;28;20043;-81
2022/11/12 13:47:25;;;;;;;26.80;15.85;;;;;;;;;;5115918;28;20040;-82
2022/11/12 13:50:30;;;;;;;20.73;13.23;;;;;;;;;;5115771;28;20044;-82
2022/11/12 13:53:33;;;;;;;21.07;12.40;;;;;;;;;;5114750;28;20488;-81
2022/11/12 13:56:38;;;;;;;28.00;17.45;;;;;;;;;;5115464;28;20052;-81
2022/11/12 13:59:45;;;;;;;25.70;13.80;;;;;;;;;;5115739;28;20496;-81
2022/11/12 14:02:54;;;;;;;22.55;13.32;;;;;;;;;;5116418;28;20052;-79
2022/11/12 14:06:05;;;;;;;17.50;11.30;;;;;;;;;;5115746;28;20044;-79
2022/11/12 14:09:27;;;;;;;24.27;17.17;;;;;;;;;;5116652;28;20035;-79
2022/11/12 14:12:42;;;;;;;29.65;18.60;;;;;;;;;;5115979;28;20052;-79
2022/11/12 14:16:04;;;;;;;59.22;26.95;;;;;;;;;;5116801;28;20040;-81
2022/11/12 14:19:42;;;;;;;36.22;18.90;;;;;;;;;;5117728;28;20043;-80
2022/11/12 14:22:47;;;;;;;51.72;27.00;;;;;;;;;;5116050;28;20067;-79
2022/11/12 14:25:55;;;;;;;54.03;24.75;;;;;;;;;;5123344;28;20497;-78
2022/11/12 14:28:59;;;;;;;75.85;42.80;;;;;;;;;;5116700;28;20040;-80
2022/11/12 14:32:08;;;;;;;91.27;59.57;;;;;;;;;;5115787;28;20036;-79
2022/11/12 14:35:35;;;;;;;99.47;73.68;;;;;;;;;;5115841;28;20032;-80
2022/11/12 14:38:49;;;;;;;35.17;23.52;;;;;;;;;;5115482;28;20051;-80
2022/11/12 14:41:56;;;;;;;41.45;27.13;;;;;;;;;;5115210;28;20043;-80
2022/11/12 14:45:01;;;;;;;30.13;17.77;;;;;;;;;;5115679;28;20040;-80
2022/11/12 14:48:08;;;;;;;29.77;19.60;;;;;;;;;;5115436;28;20039;-80
2022/11/12 14:51:13;;;;;;;38.88;26.30;;;;;;;;;;5115231;28;20044;-78
2022/11/12 14:54:46;;;;;;;34.05;21.52;;;;;;;;;;5115567;28;20392;-80
2022/11/12 14:57:50;;;;;;;29.45;15.60;;;;;;;;;;5114954;28;20043;-81
2022/11/12 15:00:55;;;;;;;27.00;18.67;;;;;;;;;;5115388;28;20424;-81
2022/11/12 15:04:14;;;;;;;40.33;23.10;;;;;;;;;;5114919;28;20040;-80
2022/11/12 15:07:24;;;;;;;52.83;28.23;;;;;;;;;;5115185;28;20055;-80
2022/11/12 15:10:32;;;;;;;59.20;31.40;;;;;;;;;;5118627;28;20039;-79
2022/11/12 15:13:39;;;;;;;53.92;28.77;;;;;;;;;;5115391;28;20043;-80
2022/11/12 15:16:44;;;;;;;47.20;24.23;;;;;;;;;;5114823;28;20040;-80
2022/11/12 15:19:48;;;;;;;59.83;31.13;;;;;;;;;;5115017;28;20405;-79
2022/11/12 15:22:53;;;;;;;61.88;30.48;;;;;;;;;;5114636;28;20043;-79
2022/11/12 15:25:59;;;;;;;74.07;39.20;;;;;;;;;;5114638;28;20039;-80
2022/11/12 15:29:09;;;;;;;87.45;43.35;;;;;;;;;;5114515;28;20036;-80
2022/11/12 15:32:14;;;;;;;101.20;47.90;;;;;;;;;;5114660;28;20051;-80
2022/11/12 15:35:20;;;;;;;121.32;68.57;;;;;;;;;;5114241;28;20388;-79
2022/11/12 15:38:25;;;;;;;100.30;54.10;;;;;;;;;;5114311;28;20043;-79
2022/11/12 15:41:33;;;;;;;76.78;42.92;;;;;;;;;;5114381;28;20048;-79
2022/11/12 15:44:38;;;;;;;74.60;44.13;;;;;;;;;;5114121;28;20048;-79
2022/11/12 15:47:41;;;;;;;112.63;47.25;;;;;;;;;;5114117;28;20040;-81
2022/11/12 15:50:46;;;;;;;137.17;74.53;;;;;;;;;;5114734;28;20377;-79
2022/11/12 15:53:50;;;;;;;176.48;94.70;;;;;;;;;;5117631;28;20488;-79
2022/11/12 15:56:54;;;;;;;172.45;90.65;;;;;;;;;;5117383;28;20476;-78
2022/11/12 16:00:13;;;;;;;231.48;124.30;;;;;;;;;;5118534;28;20044;-82
2022/11/12 16:03:19;;;;;;;211.48;119.63;;;;;;;;;;5107218;28;20044;-77
2022/11/12 16:06:28;;;;;;;189.20;105.45;;;;;;;;;;5116369;28;20047;-77
2022/11/12 16:09:33;;;;;;;127.15;70.25;;;;;;;;;;5116192;28;20031;-77
2022/11/12 16:12:36;;;;;;;64.90;37.85;;;;;;;;;;5114661;28;20370;-77
2022/11/12 16:15:41;;;;;;;90.13;47.00;;;;;;;;;;5114267;28;20036;-77
2022/11/12 16:18:45;;;;;;;52.50;33.08;;;;;;;;;;5101987;28;20044;-76
2022/11/12 16:21:54;;;;;;;68.45;39.30;;;;;;;;;;5113567;28;20059;-77
2022/11/12 16:24:58;;;;;;;99.88;44.20;;;;;;;;;;5114211;28;20036;-76
2022/11/12 16:28:03;;;;;;;135.95;56.65;;;;;;;;;;5113409;28;20048;-76
2022/11/12 16:31:08;;;;;;;127.90;59.20;;;;;;;;;;5113152;28;20039;-78
2022/11/12 16:34:12;;;;;;;92.87;47.50;;;;;;;;;;5113587;28;20031;-79
2022/11/12 16:37:16;;;;;;;107.28;50.92;;;;;;;;;;5113587;28;20276;-78
2022/11/12 16:40:23;;;;;;;115.15;56.45;;;;;;;;;;5117446;28;20043;-79
2022/11/12 16:43:28;;;;;;;115.18;56.40;;;;;;;;;;5113828;28;20044;-80
2022/11/12 16:46:35;;;;;;;122.68;64.13;;;;;;;;;;5113659;28;20043;-80
2022/11/12 16:49:44;;;;;;;123.38;58.55;;;;;;;;;;5113963;28;20481;-84
2022/11/12 16:52:48;;;;;;;139.80;61.92;;;;;;;;;;5113514;28;20285;-86
2022/11/12 16:55:52;;;;;;;149.55;66.68;;;;;;;;;;5113310;28;20036;-86
2022/11/12 16:58:55;;;;;;;153.23;71.50;;;;;;;;;;5113415;28;20032;-87
2022/11/12 17:01:59;;;;;;;154.00;71.57;;;;;;;;;;5113457;28;20033;-86
2022/11/12 17:05:06;;;;;;;125.72;59.75;;;;;;;;;;5113273;28;20051;-88
2022/11/12 17:08:16;;;;;;;109.95;47.55;;;;;;;;;;5114114;28;20048;-85
2022/11/12 17:11:20;;;;;;;100.53;43.03;;;;;;;;;;5119537;28;20044;-82
2022/11/12 17:14:24;;;;;;;89.07;43.55;;;;;;;;;;5118790;28;20388;-85
2022/11/12 17:17:29;;;;;;;89.55;43.10;;;;;;;;;;5113346;28;20047;-85
2022/11/12 17:20:33;;;;;;;83.78;38.15;;;;;;;;;;5116500;28;20055;-84
2022/11/12 17:23:38;;;;;;;;;;;;;;;;;;5109267;28;20047;-84
2022/11/12 17:26:42;;;;;;;52.08;27.10;;;;;;;;;;5125003;28;19916;-83
2022/11/12 17:29:47;;;;;;;55.65;28.73;;;;;;;;;;5125380;28;20048;-83
2022/11/12 17:32:50;;;;;;;57.25;29.73;;;;;;;;;;5118032;28;20035;-86
2022/11/12 17:36:01;;;;;;;51.03;29.50;;;;;;;;;;5116760;28;20476;-85
2022/11/12 17:39:09;;;;;;;41.20;21.70;;;;;;;;;;5107066;28;20051;-86
2022/11/12 17:42:13;;;;;;;44.15;24.05;;;;;;;;;;5121976;28;20040;-83
2022/11/12 17:45:17;;;;;;;58.00;31.85;;;;;;;;;;5117026;28;20044;-83
2022/11/12 17:48:22;;;;;;;58.45;30.42;;;;;;;;;;5118365;28;20036;-80
2022/11/12 17:51:28;;;;;;;58.78;32.85;;;;;;;;;;5116717;28;20408;-81
2022/11/12 17:54:33;;;;;;;61.85;34.65;;;;;;;;;;5116140;28;20492;-82
2022/11/12 17:57:37;;;;;;;64.53;33.47;;;;;;;;;;5116198;28;20052;-83
2022/11/12 18:00:41;;;;;;;106.55;53.03;;;;;;;;;;5120691;28;20492;-83
2022/11/12 18:03:49;;;;;;;86.15;44.53;;;;;;;;;;5116715;28;20032;-83
2022/11/12 18:06:52;;;;;;;63.83;35.42;;;;;;;;;;5115928;28;20485;-82
2022/11/12 18:09:56;;;;;;;46.05;23.50;;;;;;;;;;5125301;28;20035;-82
2022/11/12 18:12:59;;;;;;;39.45;22.95;;;;;;;;;;5115672;28;20500;-82
2022/11/12 18:16:19;;;;;;;45.75;25.13;;;;;;;;;;5111842;28;20069;-83
2022/11/12 18:19:23;;;;;;;36.38;21.77;;;;;;;;;;5115600;28;20036;-82
2022/11/12 18:22:27;;;;;;;25.42;15.57;;;;;;;;;;5115708;28;20039;-81
2022/11/12 18:25:34;;;;;;;24.60;13.23;;;;;;;;;;5115386;28;20043;-82
2022/11/12 18:28:38;;;;;;;23.17;14.45;;;;;;;;;;5115328;28;20043;-83
2022/11/12 18:31:42;;;;;;;23.17;14.50;;;;;;;;;;5115315;28;20052;-82
2022/11/12 18:34:46;;;;;;;24.73;15.35;;;;;;;;;;5115555;28;20040;-82
2022/11/12 18:37:51;;;;;;;22.80;13.52;;;;;;;;;;5118053;28;20039;-87
2022/11/12 18:41:10;;;;;;;25.77;13.75;;;;;;;;;;5117892;28;20048;-84
2022/11/12 18:44:14;;;;;;;22.15;15.10;;;;;;;;;;5118587;28;20039;-88
2022/11/12 18:47:18;;;;;;;22.27;12.50;;;;;;;;;;5115911;28;20396;-87